sensor_id;sensor_type;location;lat;lon;timestamp;temperature;humidity
10213;DHT22;5150;51.400;6.692;2022-11-09T00:02:08;18.00;62.90
10213;DHT22;5150;51.400;6.692;2022-11-09T00:05:31;18.00;66.90
10213;DHT22;5150;51.400;6.692;2022-11-09T00:08:54;18.00;80.90
10213;DHT22;5150;51.400;6.692;2022-11-09T00:12:18;18.00;87.00
10213;DHT22;5150;51.400;6.692;2022-11-09T00:15:41;18.00;92.60
10213;DHT22;5150;51.400;6.692;2022-11-09T00:19:04;18.00;93.20
10213;DHT22;5150;51.400;6.692;2022-11-09T00:22:27;18.00;97.30
10213;DHT22;5150;51.400;6.692;2022-11-09T00:25:50;18.00;99.90
10213;DHT22;5150;51.400;6.692;2022-11-09T00:29:14;18.00;99.90
10213;DHT22;5150;51.400;6.692;2022-11-09T00:32:37;18.00;99.90
10213;DHT22;5150;51.400;6.692;2022-11-09T00:36:03;18.00;99.90
10213;DHT22;5150;51.400;6.692;2022-11-09T00:39:28;18.00;99.90
10213;DHT22;5150;51.400;6.692;2022-11-09T00:42:52;18.00;99.90
10213;DHT22;5150;51.400;6.692;2022-11-09T00:46:16;18.00;99.90
10213;DHT22;5150;51.400;6.692;2022-11-09T00:49:40;18.00;99.90
10213;DHT22;5150;51.400;6.692;2022-11-09T00:53:03;18.00;99.90
10213;DHT22;5150;51.400;6.692;2022-11-09T00:56:26;18.00;99.90
10213;DHT22;5150;51.400;6.692;2022-11-09T00:59:49;18.00;99.90
10213;DHT22;5150;51.400;6.692;2022-11-09T01:03:14;18.00;99.90
10213;DHT22;5150;51.400;6.692;2022-11-09T01:06:37;18.00;99.90
10213;DHT22;5150;51.400;6.692;2022-11-09T01:10:03;18.00;99.90
10213;DHT22;5150;51.400;6.692;2022-11-09T01:13:26;18.00;99.90
10213;DHT22;5150;51.400;6.692;2022-11-09T01:16:49;18.00;99.90
10213;DHT22;5150;51.400;6.692;2022-11-09T01:20:14;18.00;99.90
10213;DHT22;5150;51.400;6.692;2022-11-09T01:23:37;18.00;99.90
10213;DHT22;5150;51.400;6.692;2022-11-09T01:27:01;18.00;99.90
10213;DHT22;5150;51.400;6.692;2022-11-09T01:30:24;18.00;99.90
10213;DHT22;5150;51.400;6.692;2022-11-09T01:33:47;18.00;99.90
10213;DHT22;5150;51.400;6.692;2022-11-09T01:37:12;18.00;99.90
10213;DHT22;5150;51.400;6.692;2022-11-09T01:40:36;18.00;99.90
10213;DHT22;5150;51.400;6.692;2022-11-09T01:44:09;18.00;99.90
10213;DHT22;5150;51.400;6.692;2022-11-09T01:47:35;18.00;99.90
10213;DHT22;5150;51.400;6.692;2022-11-09T01:51:02;18.00;99.90
10213;DHT22;5150;51.400;6.692;2022-11-09T01:54:30;18.00;99.90
10213;DHT22;5150;51.400;6.692;2022-11-09T01:58:00;18.00;99.90
10213;DHT22;5150;51.400;6.692;2022-11-09T02:01:24;18.00;99.90
10213;DHT22;5150;51.400;6.692;2022-11-09T02:04:50;18.00;99.90
10213;DHT22;5150;51.400;6.692;2022-11-09T02:08:18;18.00;99.90
10213;DHT22;5150;51.400;6.692;2022-11-09T02:11:43;18.00;99.90
10213;DHT22;5150;51.400;6.692;2022-11-09T02:15:08;18.00;99.90
10213;DHT22;5150;51.400;6.692;2022-11-09T02:18:33;18.00;99.90
10213;DHT22;5150;51.400;6.692;2022-11-09T02:21:57;18.00;99.90
10213;DHT22;5150;51.400;6.692;2022-11-09T02:25:20;18.00;99.90
10213;DHT22;5150;51.400;6.692;2022-11-09T02:28:43;18.00;99.90
10213;DHT22;5150;51.400;6.692;2022-11-09T02:32:12;18.00;99.90
10213;DHT22;5150;51.400;6.692;2022-11-09T02:35:36;18.00;1.00
10213;DHT22;5150;51.400;6.692;2022-11-09T02:39:01;18.00;1.00
10213;DHT22;5150;51.400;6.692;2022-11-09T02:42:25;18.00;1.00
10213;DHT22;5150;51.400;6.692;2022-11-09T02:45:48;17.90;1.00
10213;DHT22;5150;51.400;6.692;2022-11-09T02:49:11;17.90;1.00
10213;DHT22;5150;51.400;6.692;2022-11-09T02:52:34;17.90;1.00
10213;DHT22;5150;51.400;6.692;2022-11-09T02:55:59;17.90;1.00
10213;DHT22;5150;51.400;6.692;2022-11-09T02:59:23;17.90;1.00
10213;DHT22;5150;51.400;6.692;2022-11-09T03:02:46;17.90;1.00
10213;DHT22;5150;51.400;6.692;2022-11-09T03:06:10;17.90;1.00
10213;DHT22;5150;51.400;6.692;2022-11-09T03:09:33;17.90;1.00
10213;DHT22;5150;51.400;6.692;2022-11-09T03:12:57;17.90;1.00
10213;DHT22;5150;51.400;6.692;2022-11-09T03:16:20;17.90;1.00
10213;DHT22;5150;51.400;6.692;2022-11-09T03:19:44;17.90;1.00
10213;DHT22;5150;51.400;6.692;2022-11-09T03:23:07;17.90;1.00
10213;DHT22;5150;51.400;6.692;2022-11-09T03:26:32;17.90;1.00
10213;DHT22;5150;51.400;6.692;2022-11-09T03:29:57;17.90;1.00
10213;DHT22;5150;51.400;6.692;2022-11-09T03:33:20;17.90;1.00
10213;DHT22;5150;51.400;6.692;2022-11-09T03:36:43;17.90;1.00
10213;DHT22;5150;51.400;6.692;2022-11-09T03:40:07;17.90;99.90
10213;DHT22;5150;51.400;6.692;2022-11-09T03:43:32;17.90;99.90
10213;DHT22;5150;51.400;6.692;2022-11-09T03:46:57;17.90;99.90
10213;DHT22;5150;51.400;6.692;2022-11-09T03:50:19;17.90;1.00
10213;DHT22;5150;51.400;6.692;2022-11-09T03:53:42;17.90;99.90
10213;DHT22;5150;51.400;6.692;2022-11-09T03:57:05;17.90;99.90
10213;DHT22;5150;51.400;6.692;2022-11-09T04:00:28;17.90;99.90
10213;DHT22;5150;51.400;6.692;2022-11-09T04:03:54;17.90;99.90
10213;DHT22;5150;51.400;6.692;2022-11-09T04:07:17;17.80;99.90
10213;DHT22;5150;51.400;6.692;2022-11-09T04:10:40;17.80;99.90
10213;DHT22;5150;51.400;6.692;2022-11-09T04:14:03;17.80;99.90
10213;DHT22;5150;51.400;6.692;2022-11-09T04:17:26;17.80;99.90
10213;DHT22;5150;51.400;6.692;2022-11-09T04:20:50;17.90;99.90
10213;DHT22;5150;51.400;6.692;2022-11-09T04:24:13;17.90;99.90
10213;DHT22;5150;51.400;6.692;2022-11-09T04:27:36;17.90;99.90
10213;DHT22;5150;51.400;6.692;2022-11-09T04:31:00;17.90;99.90
10213;DHT22;5150;51.400;6.692;2022-11-09T04:34:23;17.90;99.90
10213;DHT22;5150;51.400;6.692;2022-11-09T04:37:53;17.80;99.90
10213;DHT22;5150;51.400;6.692;2022-11-09T04:41:16;17.80;99.90
10213;DHT22;5150;51.400;6.692;2022-11-09T04:44:39;17.80;99.90
10213;DHT22;5150;51.400;6.692;2022-11-09T04:48:04;17.80;99.90
10213;DHT22;5150;51.400;6.692;2022-11-09T04:51:27;17.80;99.90
10213;DHT22;5150;51.400;6.692;2022-11-09T04:54:52;17.80;99.90
10213;DHT22;5150;51.400;6.692;2022-11-09T04:58:14;17.80;99.90
10213;DHT22;5150;51.400;6.692;2022-11-09T05:01:44;17.80;99.90
10213;DHT22;5150;51.400;6.692;2022-11-09T05:05:07;17.80;99.90
10213;DHT22;5150;51.400;6.692;2022-11-09T05:08:30;17.90;99.90
10213;DHT22;5150;51.400;6.692;2022-11-09T05:11:54;17.90;99.90
10213;DHT22;5150;51.400;6.692;2022-11-09T05:15:17;17.80;99.90
10213;DHT22;5150;51.400;6.692;2022-11-09T05:18:40;17.80;1.00
10213;DHT22;5150;51.400;6.692;2022-11-09T05:22:03;17.90;99.90
10213;DHT22;5150;51.400;6.692;2022-11-09T05:25:40;17.80;1.00
10213;DHT22;5150;51.400;6.692;2022-11-09T05:29:06;17.80;1.00
10213;DHT22;5150;51.400;6.692;2022-11-09T05:32:29;17.80;1.00
10213;DHT22;5150;51.400;6.692;2022-11-09T05:35:53;17.80;1.00
10213;DHT22;5150;51.400;6.692;2022-11-09T05:39:16;17.80;1.00
10213;DHT22;5150;51.400;6.692;2022-11-09T05:42:39;17.80;1.00
10213;DHT22;5150;51.400;6.692;2022-11-09T05:46:04;17.80;1.00
10213;DHT22;5150;51.400;6.692;2022-11-09T05:49:27;17.80;1.00
10213;DHT22;5150;51.400;6.692;2022-11-09T05:52:50;17.80;1.00
10213;DHT22;5150;51.400;6.692;2022-11-09T05:56:15;17.80;1.00
10213;DHT22;5150;51.400;6.692;2022-11-09T05:59:38;17.80;1.00
10213;DHT22;5150;51.400;6.692;2022-11-09T06:03:03;17.80;1.00
10213;DHT22;5150;51.400;6.692;2022-11-09T06:06:26;17.80;1.00
10213;DHT22;5150;51.400;6.692;2022-11-09T06:09:50;17.80;1.00
10213;DHT22;5150;51.400;6.692;2022-11-09T06:13:13;17.80;1.00
10213;DHT22;5150;51.400;6.692;2022-11-09T06:16:36;17.80;1.00
10213;DHT22;5150;51.400;6.692;2022-11-09T06:20:00;17.80;1.00
10213;DHT22;5150;51.400;6.692;2022-11-09T06:23:25;17.80;1.00
10213;DHT22;5150;51.400;6.692;2022-11-09T06:26:48;17.80;1.00
10213;DHT22;5150;51.400;6.692;2022-11-09T06:30:11;17.80;1.00
10213;DHT22;5150;51.400;6.692;2022-11-09T06:33:35;17.80;1.00
10213;DHT22;5150;51.400;6.692;2022-11-09T06:36:59;17.80;1.00
10213;DHT22;5150;51.400;6.692;2022-11-09T06:40:22;17.80;1.00
10213;DHT22;5150;51.400;6.692;2022-11-09T06:43:45;17.80;1.00
10213;DHT22;5150;51.400;6.692;2022-11-09T06:47:08;17.80;1.00
10213;DHT22;5150;51.400;6.692;2022-11-09T06:50:32;17.80;1.00
10213;DHT22;5150;51.400;6.692;2022-11-09T06:53:56;17.80;1.00
10213;DHT22;5150;51.400;6.692;2022-11-09T06:57:19;17.80;1.00
10213;DHT22;5150;51.400;6.692;2022-11-09T07:00:42;17.80;1.00
10213;DHT22;5150;51.400;6.692;2022-11-09T07:04:06;17.80;1.00
10213;DHT22;5150;51.400;6.692;2022-11-09T07:07:29;17.80;1.00
10213;DHT22;5150;51.400;6.692;2022-11-09T07:10:53;17.80;1.00
10213;DHT22;5150;51.400;6.692;2022-11-09T07:14:16;17.80;1.00
10213;DHT22;5150;51.400;6.692;2022-11-09T07:17:39;17.80;1.00
10213;DHT22;5150;51.400;6.692;2022-11-09T07:21:03;17.80;1.00
10213;DHT22;5150;51.400;6.692;2022-11-09T07:24:33;17.80;1.00
10213;DHT22;5150;51.400;6.692;2022-11-09T07:28:02;17.80;1.00
10213;DHT22;5150;51.400;6.692;2022-11-09T07:31:25;17.80;1.00
10213;DHT22;5150;51.400;6.692;2022-11-09T07:34:50;17.90;1.00
10213;DHT22;5150;51.400;6.692;2022-11-09T07:38:13;17.90;1.00
10213;DHT22;5150;51.400;6.692;2022-11-09T07:41:37;17.90;1.00
10213;DHT22;5150;51.400;6.692;2022-11-09T07:45:01;17.90;1.00
10213;DHT22;5150;51.400;6.692;2022-11-09T07:48:24;17.90;99.90
10213;DHT22;5150;51.400;6.692;2022-11-09T07:51:47;17.90;99.90
10213;DHT22;5150;51.400;6.692;2022-11-09T07:55:10;18.00;99.90
10213;DHT22;5150;51.400;6.692;2022-11-09T07:58:33;18.00;99.90
10213;DHT22;5150;51.400;6.692;2022-11-09T08:01:58;18.00;99.90
10213;DHT22;5150;51.400;6.692;2022-11-09T08:05:22;18.00;99.90
10213;DHT22;5150;51.400;6.692;2022-11-09T08:08:45;18.00;99.90
10213;DHT22;5150;51.400;6.692;2022-11-09T08:12:10;18.00;99.90
10213;DHT22;5150;51.400;6.692;2022-11-09T08:15:33;18.00;99.90
10213;DHT22;5150;51.400;6.692;2022-11-09T08:18:58;18.00;99.90
10213;DHT22;5150;51.400;6.692;2022-11-09T08:22:21;18.00;99.90
10213;DHT22;5150;51.400;6.692;2022-11-09T08:25:44;18.00;99.90
10213;DHT22;5150;51.400;6.692;2022-11-09T08:29:07;18.00;99.90
10213;DHT22;5150;51.400;6.692;2022-11-09T08:32:31;18.10;99.90
10213;DHT22;5150;51.400;6.692;2022-11-09T08:35:55;18.10;99.90
10213;DHT22;5150;51.400;6.692;2022-11-09T08:39:18;18.10;99.90
10213;DHT22;5150;51.400;6.692;2022-11-09T08:42:44;18.10;99.90
10213;DHT22;5150;51.400;6.692;2022-11-09T08:46:07;18.10;99.90
10213;DHT22;5150;51.400;6.692;2022-11-09T08:49:29;18.20;99.90
10213;DHT22;5150;51.400;6.692;2022-11-09T08:52:54;18.20;99.90
10213;DHT22;5150;51.400;6.692;2022-11-09T08:56:17;18.20;97.10
10213;DHT22;5150;51.400;6.692;2022-11-09T08:59:40;18.20;81.90
10213;DHT22;5150;51.400;6.692;2022-11-09T09:03:04;18.10;59.10
10213;DHT22;5150;51.400;6.692;2022-11-09T09:06:27;18.10;54.00
10213;DHT22;5150;51.400;6.692;2022-11-09T09:09:53;18.20;40.50
10213;DHT22;5150;51.400;6.692;2022-11-09T09:13:16;18.20;24.10
10213;DHT22;5150;51.400;6.692;2022-11-09T09:16:43;18.20;12.60
10213;DHT22;5150;51.400;6.692;2022-11-09T09:20:06;18.20;1.00
10213;DHT22;5150;51.400;6.692;2022-11-09T09:23:29;18.30;1.00
10213;DHT22;5150;51.400;6.692;2022-11-09T09:26:54;18.30;1.00
10213;DHT22;5150;51.400;6.692;2022-11-09T09:30:17;18.40;1.00
10213;DHT22;5150;51.400;6.692;2022-11-09T09:33:40;18.40;1.00
10213;DHT22;5150;51.400;6.692;2022-11-09T09:37:03;18.40;1.00
10213;DHT22;5150;51.400;6.692;2022-11-09T09:40:30;18.40;1.00
10213;DHT22;5150;51.400;6.692;2022-11-09T09:44:00;18.40;1.00
10213;DHT22;5150;51.400;6.692;2022-11-09T09:47:32;18.40;1.00
10213;DHT22;5150;51.400;6.692;2022-11-09T09:51:01;18.40;1.00
10213;DHT22;5150;51.400;6.692;2022-11-09T09:54:29;18.50;1.00
10213;DHT22;5150;51.400;6.692;2022-11-09T09:57:54;18.50;1.00
10213;DHT22;5150;51.400;6.692;2022-11-09T10:01:23;18.50;1.00
10213;DHT22;5150;51.400;6.692;2022-11-09T10:04:48;18.50;1.00
10213;DHT22;5150;51.400;6.692;2022-11-09T10:08:18;18.60;1.00
10213;DHT22;5150;51.400;6.692;2022-11-09T10:11:48;18.60;1.00
10213;DHT22;5150;51.400;6.692;2022-11-09T10:15:25;18.60;1.00
10213;DHT22;5150;51.400;6.692;2022-11-09T10:19:16;18.60;1.00
10213;DHT22;5150;51.400;6.692;2022-11-09T10:23:02;18.60;1.00
10213;DHT22;5150;51.400;6.692;2022-11-09T10:26:38;18.70;1.00
10213;DHT22;5150;51.400;6.692;2022-11-09T10:30:12;18.70;1.00
10213;DHT22;5150;51.400;6.692;2022-11-09T10:33:36;18.70;1.00
10213;DHT22;5150;51.400;6.692;2022-11-09T10:37:05;18.80;1.00
10213;DHT22;5150;51.400;6.692;2022-11-09T10:40:32;18.80;1.00
10213;DHT22;5150;51.400;6.692;2022-11-09T10:44:16;18.80;1.00
10213;DHT22;5150;51.400;6.692;2022-11-09T10:47:59;18.80;1.00
10213;DHT22;5150;51.400;6.692;2022-11-09T10:51:43;18.80;1.00
10213;DHT22;5150;51.400;6.692;2022-11-09T10:55:28;18.80;1.00
10213;DHT22;5150;51.400;6.692;2022-11-09T10:59:35;18.80;1.00
10213;DHT22;5150;51.400;6.692;2022-11-09T11:03:17;18.90;1.00
10213;DHT22;5150;51.400;6.692;2022-11-09T11:07:12;18.90;1.00
10213;DHT22;5150;51.400;6.692;2022-11-09T11:11:22;19.00;1.00
10213;DHT22;5150;51.400;6.692;2022-11-09T11:15:21;19.00;1.00
10213;DHT22;5150;51.400;6.692;2022-11-09T11:19:04;19.10;99.90
10213;DHT22;5150;51.400;6.692;2022-11-09T11:22:45;19.20;99.90
10213;DHT22;5150;51.400;6.692;2022-11-09T11:26:34;19.30;99.90
10213;DHT22;5150;51.400;6.692;2022-11-09T11:30:19;19.30;99.90
10213;DHT22;5150;51.400;6.692;2022-11-09T11:34:07;19.30;99.90
10213;DHT22;5150;51.400;6.692;2022-11-09T11:37:58;19.40;99.90
10213;DHT22;5150;51.400;6.692;2022-11-09T11:41:57;19.50;99.90
10213;DHT22;5150;51.400;6.692;2022-11-09T11:45:42;19.60;99.90
10213;DHT22;5150;51.400;6.692;2022-11-09T11:53:46;19.60;99.90
10213;DHT22;5150;51.400;6.692;2022-11-09T11:57:38;19.60;99.90
10213;DHT22;5150;51.400;6.692;2022-11-09T12:01:40;19.70;99.90
10213;DHT22;5150;51.400;6.692;2022-11-09T12:10:15;19.70;99.90
10213;DHT22;5150;51.400;6.692;2022-11-09T12:14:07;19.70;99.90
10213;DHT22;5150;51.400;6.692;2022-11-09T12:17:58;19.80;99.90
10213;DHT22;5150;51.400;6.692;2022-11-09T12:21:50;19.80;99.90
10213;DHT22;5150;51.400;6.692;2022-11-09T12:25:41;19.80;99.90
10213;DHT22;5150;51.400;6.692;2022-11-09T12:29:33;19.80;99.90
10213;DHT22;5150;51.400;6.692;2022-11-09T12:33:22;19.80;99.90
10213;DHT22;5150;51.400;6.692;2022-11-09T12:37:17;19.70;99.90
10213;DHT22;5150;51.400;6.692;2022-11-09T12:41:03;19.70;99.90
10213;DHT22;5150;51.400;6.692;2022-11-09T12:44:56;19.80;99.90
10213;DHT22;5150;51.400;6.692;2022-11-09T12:48:40;19.80;99.90
10213;DHT22;5150;51.400;6.692;2022-11-09T12:52:25;19.70;99.90
10213;DHT22;5150;51.400;6.692;2022-11-09T12:56:14;19.70;99.90
10213;DHT22;5150;51.400;6.692;2022-11-09T12:59:59;19.70;99.90
10213;DHT22;5150;51.400;6.692;2022-11-09T13:03:53;19.70;99.90
10213;DHT22;5150;51.400;6.692;2022-11-09T13:07:47;19.80;99.90
10213;DHT22;5150;51.400;6.692;2022-11-09T13:11:35;19.80;99.90
10213;DHT22;5150;51.400;6.692;2022-11-09T13:15:24;19.80;99.90
10213;DHT22;5150;51.400;6.692;2022-11-09T13:19:07;19.80;99.90
10213;DHT22;5150;51.400;6.692;2022-11-09T13:23:00;19.80;99.90
10213;DHT22;5150;51.400;6.692;2022-11-09T13:26:55;19.80;99.90
10213;DHT22;5150;51.400;6.692;2022-11-09T13:30:42;19.70;99.90
10213;DHT22;5150;51.400;6.692;2022-11-09T13:34:39;19.80;99.90
10213;DHT22;5150;51.400;6.692;2022-11-09T13:38:21;19.90;99.90
10213;DHT22;5150;51.400;6.692;2022-11-09T13:42:22;19.90;99.90
10213;DHT22;5150;51.400;6.692;2022-11-09T13:46:23;19.90;99.90
10213;DHT22;5150;51.400;6.692;2022-11-09T13:50:15;19.80;99.90
10213;DHT22;5150;51.400;6.692;2022-11-09T13:53:59;19.70;99.90
10213;DHT22;5150;51.400;6.692;2022-11-09T13:57:42;19.70;99.90
10213;DHT22;5150;51.400;6.692;2022-11-09T14:01:29;19.60;99.90
10213;DHT22;5150;51.400;6.692;2022-11-09T14:05:25;19.50;99.90
10213;DHT22;5150;51.400;6.692;2022-11-09T14:09:14;19.50;99.90
10213;DHT22;5150;51.400;6.692;2022-11-09T14:13:10;19.50;99.90
10213;DHT22;5150;51.400;6.692;2022-11-09T14:17:00;19.50;99.90
10213;DHT22;5150;51.400;6.692;2022-11-09T14:20:52;19.50;99.90
10213;DHT22;5150;51.400;6.692;2022-11-09T14:24:36;19.50;99.90
10213;DHT22;5150;51.400;6.692;2022-11-09T14:28:20;19.50;99.90
10213;DHT22;5150;51.400;6.692;2022-11-09T14:32:21;19.50;99.90
10213;DHT22;5150;51.400;6.692;2022-11-09T14:36:04;19.50;99.90
10213;DHT22;5150;51.400;6.692;2022-11-09T14:39:47;19.60;99.90
10213;DHT22;5150;51.400;6.692;2022-11-09T14:43:36;19.60;99.90
10213;DHT22;5150;51.400;6.692;2022-11-09T14:47:29;19.50;99.90
10213;DHT22;5150;51.400;6.692;2022-11-09T14:51:11;19.50;99.90
10213;DHT22;5150;51.400;6.692;2022-11-09T14:54:53;19.40;99.90
10213;DHT22;5150;51.400;6.692;2022-11-09T14:58:38;19.40;99.90
10213;DHT22;5150;51.400;6.692;2022-11-09T15:02:22;19.30;99.90
10213;DHT22;5150;51.400;6.692;2022-11-09T15:06:05;19.30;99.90
10213;DHT22;5150;51.400;6.692;2022-11-09T15:09:49;19.30;99.90
10213;DHT22;5150;51.400;6.692;2022-11-09T15:13:34;19.20;99.90
10213;DHT22;5150;51.400;6.692;2022-11-09T15:17:17;19.20;99.90
10213;DHT22;5150;51.400;6.692;2022-11-09T15:21:16;19.20;99.90
10213;DHT22;5150;51.400;6.692;2022-11-09T15:24:58;19.30;99.90
10213;DHT22;5150;51.400;6.692;2022-11-09T15:28:44;19.20;99.90
10213;DHT22;5150;51.400;6.692;2022-11-09T15:32:26;19.20;99.90
10213;DHT22;5150;51.400;6.692;2022-11-09T15:36:29;19.20;99.90
10213;DHT22;5150;51.400;6.692;2022-11-09T15:40:14;19.20;99.90
10213;DHT22;5150;51.400;6.692;2022-11-09T15:43:56;19.10;99.90
10213;DHT22;5150;51.400;6.692;2022-11-09T15:47:37;19.10;99.90
10213;DHT22;5150;51.400;6.692;2022-11-09T15:51:20;19.10;99.90
10213;DHT22;5150;51.400;6.692;2022-11-09T15:55:02;19.00;99.90
10213;DHT22;5150;51.400;6.692;2022-11-09T15:58:44;19.00;99.90
10213;DHT22;5150;51.400;6.692;2022-11-09T16:02:28;18.90;99.90
10213;DHT22;5150;51.400;6.692;2022-11-09T16:06:10;18.90;99.90
10213;DHT22;5150;51.400;6.692;2022-11-09T16:09:55;18.90;99.90
10213;DHT22;5150;51.400;6.692;2022-11-09T16:13:37;18.80;99.90
10213;DHT22;5150;51.400;6.692;2022-11-09T16:17:19;18.80;99.90
10213;DHT22;5150;51.400;6.692;2022-11-09T16:21:06;18.80;99.90
10213;DHT22;5150;51.400;6.692;2022-11-09T16:24:48;18.70;99.90
10213;DHT22;5150;51.400;6.692;2022-11-09T16:28:31;18.70;99.90
10213;DHT22;5150;51.400;6.692;2022-11-09T16:32:12;18.70;99.90
10213;DHT22;5150;51.400;6.692;2022-11-09T16:35:55;18.70;99.90
10213;DHT22;5150;51.400;6.692;2022-11-09T16:39:37;18.60;99.90
10213;DHT22;5150;51.400;6.692;2022-11-09T16:43:19;18.60;99.90
10213;DHT22;5150;51.400;6.692;2022-11-09T16:47:04;18.60;99.90
10213;DHT22;5150;51.400;6.692;2022-11-09T16:50:47;18.60;99.90
10213;DHT22;5150;51.400;6.692;2022-11-09T16:54:28;18.50;99.90
10213;DHT22;5150;51.400;6.692;2022-11-09T16:58:10;18.50;99.90
10213;DHT22;5150;51.400;6.692;2022-11-09T17:01:53;18.50;99.90
10213;DHT22;5150;51.400;6.692;2022-11-09T17:05:36;18.50;99.90
10213;DHT22;5150;51.400;6.692;2022-11-09T17:09:18;18.50;99.90
10213;DHT22;5150;51.400;6.692;2022-11-09T17:13:00;18.40;99.90
10213;DHT22;5150;51.400;6.692;2022-11-09T17:16:41;18.40;99.90
10213;DHT22;5150;51.400;6.692;2022-11-09T17:20:23;18.40;99.90
10213;DHT22;5150;51.400;6.692;2022-11-09T17:24:06;18.40;99.90
10213;DHT22;5150;51.400;6.692;2022-11-09T17:27:48;18.40;99.90
10213;DHT22;5150;51.400;6.692;2022-11-09T17:31:29;18.30;99.90
10213;DHT22;5150;51.400;6.692;2022-11-09T17:35:10;18.30;99.90
10213;DHT22;5150;51.400;6.692;2022-11-09T17:38:52;18.30;99.90
10213;DHT22;5150;51.400;6.692;2022-11-09T17:42:35;18.30;99.90
10213;DHT22;5150;51.400;6.692;2022-11-09T17:46:18;18.30;99.90
10213;DHT22;5150;51.400;6.692;2022-11-09T17:50:00;18.20;99.90
10213;DHT22;5150;51.400;6.692;2022-11-09T17:53:42;18.30;99.90
10213;DHT22;5150;51.400;6.692;2022-11-09T17:57:23;18.20;99.90
10213;DHT22;5150;51.400;6.692;2022-11-09T18:01:07;18.20;99.90
10213;DHT22;5150;51.400;6.692;2022-11-09T18:04:49;18.20;99.90
10213;DHT22;5150;51.400;6.692;2022-11-09T18:08:30;18.20;99.90
10213;DHT22;5150;51.400;6.692;2022-11-09T18:12:12;18.20;99.90
10213;DHT22;5150;51.400;6.692;2022-11-09T18:15:55;18.20;99.90
10213;DHT22;5150;51.400;6.692;2022-11-09T18:19:38;18.20;99.90
10213;DHT22;5150;51.400;6.692;2022-11-09T18:23:20;18.10;99.90
10213;DHT22;5150;51.400;6.692;2022-11-09T18:27:01;18.10;99.90
10213;DHT22;5150;51.400;6.692;2022-11-09T18:30:43;18.10;99.90
10213;DHT22;5150;51.400;6.692;2022-11-09T18:34:25;18.10;99.90
10213;DHT22;5150;51.400;6.692;2022-11-09T18:38:08;18.10;99.90
10213;DHT22;5150;51.400;6.692;2022-11-09T18:41:53;18.00;99.90
10213;DHT22;5150;51.400;6.692;2022-11-09T18:45:36;18.00;99.90
10213;DHT22;5150;51.400;6.692;2022-11-09T18:49:17;18.00;99.90
10213;DHT22;5150;51.400;6.692;2022-11-09T18:52:59;18.00;99.90
10213;DHT22;5150;51.400;6.692;2022-11-09T18:56:42;18.00;1.00
10213;DHT22;5150;51.400;6.692;2022-11-09T19:00:25;18.00;1.00
10213;DHT22;5150;51.400;6.692;2022-11-09T19:04:07;18.00;1.00
10213;DHT22;5150;51.400;6.692;2022-11-09T19:07:50;18.00;1.00
10213;DHT22;5150;51.400;6.692;2022-11-09T19:11:31;18.00;1.00
10213;DHT22;5150;51.400;6.692;2022-11-09T19:15:14;17.90;1.00
10213;DHT22;5150;51.400;6.692;2022-11-09T19:18:56;17.90;1.00
10213;DHT22;5150;51.400;6.692;2022-11-09T19:22:37;17.90;1.00
10213;DHT22;5150;51.400;6.692;2022-11-09T19:26:20;17.90;1.00
10213;DHT22;5150;51.400;6.692;2022-11-09T19:30:02;17.90;1.00
10213;DHT22;5150;51.400;6.692;2022-11-09T19:33:50;17.90;1.00
10213;DHT22;5150;51.400;6.692;2022-11-09T19:37:32;17.90;1.00
10213;DHT22;5150;51.400;6.692;2022-11-09T19:41:13;17.90;1.00
10213;DHT22;5150;51.400;6.692;2022-11-09T19:44:55;17.90;1.00
10213;DHT22;5150;51.400;6.692;2022-11-09T19:48:41;17.90;1.00
10213;DHT22;5150;51.400;6.692;2022-11-09T19:52:24;17.80;1.00
10213;DHT22;5150;51.400;6.692;2022-11-09T19:56:07;17.80;1.00
10213;DHT22;5150;51.400;6.692;2022-11-09T19:59:48;17.80;1.00
10213;DHT22;5150;51.400;6.692;2022-11-09T20:03:30;17.80;1.00
10213;DHT22;5150;51.400;6.692;2022-11-09T20:07:11;17.80;1.00
10213;DHT22;5150;51.400;6.692;2022-11-09T20:10:54;17.80;1.00
10213;DHT22;5150;51.400;6.692;2022-11-09T20:14:36;17.80;1.00
10213;DHT22;5150;51.400;6.692;2022-11-09T20:18:17;17.80;1.00
10213;DHT22;5150;51.400;6.692;2022-11-09T20:21:59;17.80;1.00
10213;DHT22;5150;51.400;6.692;2022-11-09T20:25:41;17.80;1.00
10213;DHT22;5150;51.400;6.692;2022-11-09T20:29:23;17.80;1.00
10213;DHT22;5150;51.400;6.692;2022-11-09T20:33:05;17.80;1.00
10213;DHT22;5150;51.400;6.692;2022-11-09T20:36:48;17.70;1.00
10213;DHT22;5150;51.400;6.692;2022-11-09T20:40:30;17.70;1.00
10213;DHT22;5150;51.400;6.692;2022-11-09T20:44:11;17.70;1.00
10213;DHT22;5150;51.400;6.692;2022-11-09T20:47:55;17.70;1.00
10213;DHT22;5150;51.400;6.692;2022-11-09T20:51:56;17.70;1.00
10213;DHT22;5150;51.400;6.692;2022-11-09T20:55:40;17.70;1.00
10213;DHT22;5150;51.400;6.692;2022-11-09T20:59:22;17.70;1.00
10213;DHT22;5150;51.400;6.692;2022-11-09T21:03:05;17.70;1.00
10213;DHT22;5150;51.400;6.692;2022-11-09T21:06:47;17.70;1.00
10213;DHT22;5150;51.400;6.692;2022-11-09T21:10:29;17.70;1.00
10213;DHT22;5150;51.400;6.692;2022-11-09T21:14:10;17.70;1.00
10213;DHT22;5150;51.400;6.692;2022-11-09T21:17:52;17.60;1.00
10213;DHT22;5150;51.400;6.692;2022-11-09T21:21:35;17.60;1.00
10213;DHT22;5150;51.400;6.692;2022-11-09T21:25:16;17.60;1.00
10213;DHT22;5150;51.400;6.692;2022-11-09T21:29:18;17.60;1.00
10213;DHT22;5150;51.400;6.692;2022-11-09T21:33:17;17.60;1.00
10213;DHT22;5150;51.400;6.692;2022-11-09T21:37:00;17.60;1.00
10213;DHT22;5150;51.400;6.692;2022-11-09T21:40:42;17.60;1.00
10213;DHT22;5150;51.400;6.692;2022-11-09T21:44:23;17.60;1.00
10213;DHT22;5150;51.400;6.692;2022-11-09T21:48:05;17.60;1.00
10213;DHT22;5150;51.400;6.692;2022-11-09T21:51:47;17.60;1.00
10213;DHT22;5150;51.400;6.692;2022-11-09T21:55:30;17.60;1.00
10213;DHT22;5150;51.400;6.692;2022-11-09T21:59:12;17.50;1.00
10213;DHT22;5150;51.400;6.692;2022-11-09T22:02:55;17.50;1.00
10213;DHT22;5150;51.400;6.692;2022-11-09T22:06:38;17.50;1.00
10213;DHT22;5150;51.400;6.692;2022-11-09T22:10:21;17.50;1.00
10213;DHT22;5150;51.400;6.692;2022-11-09T22:14:04;17.50;1.00
10213;DHT22;5150;51.400;6.692;2022-11-09T22:18:03;17.50;1.00
10213;DHT22;5150;51.400;6.692;2022-11-09T22:21:44;17.50;1.00
10213;DHT22;5150;51.400;6.692;2022-11-09T22:25:25;17.50;1.00
10213;DHT22;5150;51.400;6.692;2022-11-09T22:29:08;17.50;1.00
10213;DHT22;5150;51.400;6.692;2022-11-09T22:32:49;17.50;1.00
10213;DHT22;5150;51.400;6.692;2022-11-09T22:36:31;17.50;1.00
10213;DHT22;5150;51.400;6.692;2022-11-09T22:40:12;17.50;1.00
10213;DHT22;5150;51.400;6.692;2022-11-09T22:43:53;17.50;1.00
10213;DHT22;5150;51.400;6.692;2022-11-09T22:47:37;17.50;1.00
10213;DHT22;5150;51.400;6.692;2022-11-09T22:51:18;17.50;1.00
10213;DHT22;5150;51.400;6.692;2022-11-09T22:55:00;17.40;1.00
10213;DHT22;5150;51.400;6.692;2022-11-09T22:58:42;17.50;1.00
10213;DHT22;5150;51.400;6.692;2022-11-09T23:02:24;17.40;1.00
10213;DHT22;5150;51.400;6.692;2022-11-09T23:06:09;17.40;1.00
10213;DHT22;5150;51.400;6.692;2022-11-09T23:09:50;17.40;1.00
10213;DHT22;5150;51.400;6.692;2022-11-09T23:13:32;17.40;1.00
10213;DHT22;5150;51.400;6.692;2022-11-09T23:17:14;17.40;1.00
10213;DHT22;5150;51.400;6.692;2022-11-09T23:21:11;17.40;1.00